SV1LH-1 Melissia GR current weather conditions

sailwx.info

Wind from 202 at 1 knots gusting 3

Air temperature 8.3° C
Dewpoint -1.2° C

Last reported at 2017-Mar-29 04:55 UTC.
Time now 2017-Mar-29 05:14 UTC

Location: N 38°03' E 023°51'.
View on Google Maps.

See reports from other nearby stations

  
Tides and Currents Weather Stations Pressure Air Temp Water Temp Dewpoint Dewpoint Depression Visibility Wind Speed Wind Dir Waves Ship Positions
date/time (UTC)wind fromknots sea level pressurealtimeterstation pressurevisibilityair tempwater tempwave heightnotes
2017-Mar-29 05:00 225 0 gusting 1 8.3
2017-Mar-29 04:55 202 1 gusting 3 8.3
2017-Mar-29 04:50 247 1 gusting 2 8.3
2017-Mar-29 04:45 135 1 gusting 2 8.3
2017-Mar-29 04:40 225 3 gusting 7 8.3
2017-Mar-29 04:35 090 4 gusting 11 8.3
2017-Mar-29 04:30 045 3 gusting 6 8.3
2017-Mar-29 04:25 112 1 gusting 5 8.3
2017-Mar-29 04:20 135 1 gusting 4 8.3
2017-Mar-29 04:15 247 3 gusting 7 7.8
2017-Mar-29 04:10 022 3 gusting 7 7.8
2017-Mar-29 04:05 270 1 gusting 2 7.8
2017-Mar-29 04:00 7.8
2017-Mar-29 03:55 337 5 gusting 9 8.3
2017-Mar-29 03:50 067 3 gusting 12 7.8
2017-Mar-29 03:45 022 2 gusting 4 7.8
2017-Mar-29 03:40 022 1 gusting 3 7.8
2017-Mar-29 03:35 337 3 gusting 5 7.8
2017-Mar-29 03:30 315 6 gusting 9 7.8
2017-Mar-29 03:25 022 6 gusting 13 8.3
2017-Mar-29 03:20 202 3 gusting 6 8.3
2017-Mar-29 03:15 8.3
2017-Mar-29 03:10 337 7 gusting 12 8.3
2017-Mar-29 03:05 8.3
2017-Mar-29 03:00 337 6 gusting 12 8.3
2017-Mar-29 02:55 022 7 gusting 14 8.3
2017-Mar-29 02:50 045 7 gusting 10 8.3
2017-Mar-29 02:45 315 6 gusting 9 8.3
2017-Mar-29 02:40 045 8 gusting 14 8.3
2017-Mar-29 02:35 7.8
2017-Mar-29 02:30 7.8
2017-Mar-29 02:25 7.8
2017-Mar-29 02:20 022 4 gusting 6 7.8
2017-Mar-29 02:15 337 3 gusting 8 7.8
2017-Mar-29 02:10 022 5 gusting 6 7.8
2017-Mar-29 02:05 7.8
2017-Mar-29 02:00 225 4 gusting 10 7.8
2017-Mar-29 01:55 7.8
2017-Mar-29 01:50 045 5 gusting 10 7.8
2017-Mar-29 01:45 315 3 gusting 6 7.8
2017-Mar-29 01:40 292 3 gusting 6 7.8
2017-Mar-29 01:35 180 6 gusting 12 7.8
2017-Mar-29 01:30 270 3 gusting 7 7.8
2017-Mar-29 01:25 270 3 gusting 6 7.8
2017-Mar-29 01:20 270 5 gusting 7 7.8
2017-Mar-29 01:15 7.8
2017-Mar-29 01:10 022 2 gusting 5 7.8
2017-Mar-29 01:05 247 2 gusting 3 7.8
2017-Mar-29 01:00 045 1 gusting 3 7.8
2017-Mar-29 00:55 270 0 gusting 1 7.2
2017-Mar-29 00:50 247 2 gusting 6 7.2
2017-Mar-29 00:45 180 0 gusting 2 7.2
2017-Mar-29 00:40 202 1 gusting 2 7.2
2017-Mar-29 00:35 135 3 gusting 5 7.2
2017-Mar-29 00:30 337 2 gusting 3 7.8
2017-Mar-29 00:25 270 6 gusting 7 7.2
2017-Mar-29 00:20 247 6 gusting 7 7.2
2017-Mar-29 00:15 292 3 gusting 5 7.2
2017-Mar-29 00:10 247 2 gusting 3 7.2
2017-Mar-29 00:05 270 2 gusting 3 7.2
2017-Mar-29 00:00 270 2 gusting 3 7.2
2017-Mar-28 23:55 270 3 gusting 5 7.2
2017-Mar-28 23:50 247 2 gusting 3 7.8
2017-Mar-28 23:45 270 1 gusting 2 7.8
2017-Mar-28 23:40 270 2 gusting 4 7.8
2017-Mar-28 23:35 270 3 gusting 5 7.8
2017-Mar-28 23:30 270 2 gusting 3 7.8
2017-Mar-28 23:25 247 3 gusting 5 8.3
2017-Mar-28 23:20 180 6 gusting 8 8.3
2017-Mar-28 23:15 180 5 gusting 6 7.8
2017-Mar-28 23:10 270 4 gusting 6 7.8
2017-Mar-28 23:05 270 4 gusting 5 7.8
2017-Mar-28 23:00 7.8
2017-Mar-28 22:55 292 4 gusting 5 7.8
2017-Mar-28 22:50 202 3 gusting 4 7.8
2017-Mar-28 22:45 180 5 gusting 6 7.2
2017-Mar-28 22:40 202 3 gusting 7 7.2
2017-Mar-28 22:35 247 1 gusting 3 7.2
2017-Mar-28 22:30 270 0 gusting 1 7.2
2017-Mar-28 22:25 225 1 gusting 1 7.2
2017-Mar-28 22:20 225 1 gusting 2 7.2
2017-Mar-28 22:15 247 2 gusting 3 7.2
2017-Mar-28 22:10 247 3 gusting 5 7.2
2017-Mar-28 22:05 225 2 gusting 3 7.2
2017-Mar-28 22:00 270 4 gusting 5 7.2
2017-Mar-28 21:55 247 3 gusting 5 7.2
2017-Mar-28 21:50 247 4 gusting 6 7.2
2017-Mar-28 21:45 225 4 gusting 7 7.2
2017-Mar-28 21:40 270 5 gusting 6 7.2
2017-Mar-28 21:35 247 5 gusting 6 7.2
2017-Mar-28 21:30 247 4 gusting 5 7.2
2017-Mar-28 21:25 247 4 gusting 5 7.2
2017-Mar-28 21:20 225 3 gusting 5 7.2
2017-Mar-28 21:15 225 2 gusting 4 6.7
2017-Mar-28 21:10 270 3 gusting 4 6.7
2017-Mar-28 21:05 270 2 gusting 3 6.7
2017-Mar-28 21:00 270 2 gusting 3 6.7
2017-Mar-28 20:55 315 0 gusting 1 6.7
2017-Mar-28 20:50 270 2 gusting 3 6.1
2017-Mar-28 20:45 292 0 gusting 1 6.1
2017-Mar-28 20:40 6.1
2017-Mar-28 20:35 270 0 gusting 1 6.1
2017-Mar-28 20:30 045 2 gusting 3 6.1
2017-Mar-28 20:25 045 2 gusting 4 6.1
2017-Mar-28 20:20 045 1 gusting 3 6.1
2017-Mar-28 20:15 090 1 gusting 3 6.7
2017-Mar-28 20:10 292 2 gusting 3 6.7
2017-Mar-28 20:05 180 1 gusting 3 6.7
2017-Mar-28 20:00 022 5 gusting 8 6.7
2017-Mar-28 19:55 6.7
2017-Mar-28 19:50 045 2 gusting 5 7.2
2017-Mar-28 19:45 315 4 gusting 6 7.2
2017-Mar-28 19:40 022 2 gusting 4 7.2
2017-Mar-28 19:35 7.2
2017-Mar-28 19:30 022 6 gusting 11 7.2
2017-Mar-28 19:25 7.2
2017-Mar-28 19:20 045 8 gusting 10 7.2
2017-Mar-28 19:15 045 7 gusting 10 7.2
2017-Mar-28 19:10 022 8 gusting 13 7.2
2017-Mar-28 19:05 337 5 gusting 7 7.2
2017-Mar-28 19:00 022 7 gusting 13 7.2
2017-Mar-28 18:55 022 6 gusting 12 7.2
2017-Mar-28 18:50 022 6 gusting 8 7.2
2017-Mar-28 18:45 045 6 gusting 12 7.2
2017-Mar-28 18:40 022 6 gusting 8 7.2
2017-Mar-28 18:35 022 6 gusting 9 7.2
2017-Mar-28 18:30 045 7 gusting 11 7.2
2017-Mar-28 18:25 7.2
2017-Mar-28 18:20 7.2
2017-Mar-28 18:15 022 4 gusting 7 7.8
2017-Mar-28 18:10 022 5 gusting 6 7.8
2017-Mar-28 18:05 022 4 gusting 6 7.8
2017-Mar-28 18:00 7.8
2017-Mar-28 17:55 045 6 gusting 9 7.8
2017-Mar-28 17:50 022 6 gusting 11 7.8
2017-Mar-28 17:45 315 4 gusting 7 7.8
2017-Mar-28 17:40 045 6 gusting 10 7.8
2017-Mar-28 17:35 7.8
2017-Mar-28 17:30 7.8
2017-Mar-28 17:25 7.8
2017-Mar-28 17:20 8.3
2017-Mar-28 17:15 315 5 gusting 10 8.3
2017-Mar-28 17:10 8.3
2017-Mar-28 17:05 8.3
2017-Mar-28 17:00 022 6 gusting 10 8.3
2017-Mar-28 16:55 045 6 gusting 8 8.3
2017-Mar-28 16:50 022 5 gusting 7 8.9
2017-Mar-28 16:45 8.9
2017-Mar-28 16:40 022 6 gusting 11 9.4
2017-Mar-28 16:35 045 2 gusting 3 10.0
2017-Mar-28 16:30 045 6 gusting 10 10.0
2017-Mar-28 16:25 022 2 gusting 4 10.6
2017-Mar-28 16:20 10.6
2017-Mar-28 16:15 045 5 gusting 9 11.1
2017-Mar-28 16:10 11.7
2017-Mar-28 16:05 11.7
2017-Mar-28 16:00 022 4 gusting 5 12.2
2017-Mar-28 15:55 337 2 gusting 4 12.2
2017-Mar-28 15:50 270 0 gusting 3 12.2
2017-Mar-28 15:45 12.2
2017-Mar-28 15:40 12.8
2017-Mar-28 15:35 337 6 gusting 10 12.8
2017-Mar-28 15:25 315 6 gusting 9 13.3
2017-Mar-28 15:20 045 4 gusting 7 13.3
2017-Mar-28 15:15 315 6 gusting 8 13.9
2017-Mar-28 15:10 022 5 gusting 7 13.9
2017-Mar-28 15:05 292 4 gusting 8 13.9
2017-Mar-28 15:00 315 4 gusting 6 13.9
2017-Mar-28 14:55 13.9
2017-Mar-28 14:50 292 4 gusting 6 13.9
2017-Mar-28 14:45 14.4
2017-Mar-28 14:40 022 6 gusting 9 14.4
2017-Mar-28 14:35 315 7 gusting 10 14.4
2017-Mar-28 14:30 13.9
2017-Mar-28 14:25 022 6 gusting 11 13.9
2017-Mar-28 14:20 090 8 gusting 14 13.9
2017-Mar-28 14:15 022 6 gusting 10 13.9
2017-Mar-28 14:10 337 7 gusting 14 13.9
2017-Mar-28 14:05 292 7 gusting 13 14.4
2017-Mar-28 14:00 315 6 gusting 11 14.4
2017-Mar-28 13:55 14.4
2017-Mar-28 13:50 022 10 gusting 15 14.4
2017-Mar-28 13:45 14.4
2017-Mar-28 13:40 14.4
2017-Mar-28 13:35 14.4
2017-Mar-28 13:30 022 9 gusting 13 14.4
2017-Mar-28 13:25 022 8 gusting 16 14.4
2017-Mar-28 13:20 157 6 gusting 10 15.0
2017-Mar-28 13:15 15.0
2017-Mar-28 13:10 15.0
2017-Mar-28 13:05 15.6
2017-Mar-28 13:00 045 3 gusting 6 15.6
2017-Mar-28 12:55 112 3 gusting 5 15.0
2017-Mar-28 12:50 022 8 gusting 12 15.6
2017-Mar-28 12:45 15.6
2017-Mar-28 12:40 045 8 gusting 12 15.0
2017-Mar-28 12:35 315 6 gusting 11 15.0
2017-Mar-28 12:30 15.0
2017-Mar-28 12:25 045 6 gusting 9 15.0
2017-Mar-28 12:20 045 6 gusting 8 15.0
2017-Mar-28 12:15 022 8 gusting 13 15.0
2017-Mar-28 12:10 022 4 gusting 7 14.4
2017-Mar-28 12:05 14.4
2017-Mar-28 12:00 14.4
2017-Mar-28 11:55 022 6 gusting 9 14.4
2017-Mar-28 11:50 14.4
2017-Mar-28 11:45 14.4
2017-Mar-28 11:40 022 7 gusting 13 14.4
2017-Mar-28 11:35 14.4
2017-Mar-28 11:30 045 8 gusting 13 14.4
2017-Mar-28 11:25 15.0
2017-Mar-28 11:20 045 5 gusting 8 14.4
2017-Mar-28 11:15 045 6 gusting 10 14.4
2017-Mar-28 11:10 14.4
2017-Mar-28 11:05 022 6 gusting 10 13.9
2017-Mar-28 11:00 045 13 gusting 19 14.4
2017-Mar-28 10:55 14.4
2017-Mar-28 10:50 067 7 gusting 13 15.0
2017-Mar-28 10:45 022 6 gusting 11 15.0
2017-Mar-28 10:40 022 4 gusting 7 14.4
2017-Mar-28 10:35 14.4
2017-Mar-28 10:30 022 5 gusting 10 14.4
2017-Mar-28 10:25 13.9
2017-Mar-28 10:20 045 6 gusting 10 13.9
2017-Mar-28 10:15 022 2 gusting 5 13.3
2017-Mar-28 10:10 022 6 gusting 12 13.3
2017-Mar-28 10:05 13.9
2017-Mar-28 10:00 13.9
2017-Mar-28 09:55 022 7 gusting 11 13.3
2017-Mar-28 09:50 13.9
2017-Mar-28 09:45 14.4
2017-Mar-28 09:40 337 9 gusting 16 13.9
2017-Mar-28 09:35 045 10 gusting 13 14.4
2017-Mar-28 09:30 022 6 gusting 13 14.4
2017-Mar-28 09:25 045 3 gusting 9 13.9
2017-Mar-28 09:20 045 10 gusting 15 13.9
2017-Mar-28 09:15 315 5 gusting 11 13.9
2017-Mar-28 09:10 022 9 gusting 12 14.4
2017-Mar-28 09:05 13.9
2017-Mar-28 09:00 14.4
2017-Mar-28 08:55 022 5 gusting 9 14.4
2017-Mar-28 08:50 022 6 gusting 13 15.0
2017-Mar-28 08:45 045 2 gusting 4 15.0
2017-Mar-28 08:40 13.9
2017-Mar-28 08:35 337 6 gusting 9 13.3
2017-Mar-28 08:30 045 9 gusting 18 13.3
2017-Mar-28 08:25 337 5 gusting 12 13.3
2017-Mar-28 08:20 315 3 gusting 7 13.3
2017-Mar-28 08:15 315 3 gusting 5 13.3
2017-Mar-28 08:10 067 5 gusting 12 12.8
2017-Mar-28 08:05 12.8
2017-Mar-28 08:00 12.2
2017-Mar-28 07:55 337 6 gusting 10 12.8
2017-Mar-28 07:50 180 4 gusting 10 12.8
2017-Mar-28 07:45 12.8
2017-Mar-28 07:40 270 7 gusting 15 11.7
2017-Mar-28 07:35 11.7
2017-Mar-28 07:30 11.7
2017-Mar-28 07:25 337 6 gusting 9 12.8
2017-Mar-28 07:20 12.2
2017-Mar-28 07:15 292 6 gusting 12 12.2
2017-Mar-28 07:10 11.7
2017-Mar-28 07:05 11.7
2017-Mar-28 07:00 12.2
2017-Mar-28 06:55 045 6 gusting 13 12.2
2017-Mar-28 06:50 135 2 gusting 6 11.7
2017-Mar-28 06:45 022 9 gusting 12 11.7
2017-Mar-28 06:40 022 6 gusting 9 11.7
2017-Mar-28 06:35 270 4 gusting 6 11.7
2017-Mar-28 06:30 067 2 gusting 4 11.7
2017-Mar-28 06:25 247 4 gusting 7 11.1
2017-Mar-28 06:20 022 5 gusting 9 11.1
2017-Mar-28 06:15 247 3 gusting 6 10.6
2017-Mar-28 06:10 090 2 gusting 6 10.0
2017-Mar-28 06:05 180 3 gusting 7 10.0
2017-Mar-28 06:00 202 4 gusting 7 9.4
2017-Mar-28 05:55 9.4
2017-Mar-28 05:50 8.9
2017-Mar-28 05:45 8.9
2017-Mar-28 05:40 337 11 gusting 24 8.3
2017-Mar-28 05:35 022 7 gusting 13 8.3
2017-Mar-28 05:30 022 7 gusting 11 8.3
2017-Mar-28 05:25 8.3
2017-Mar-28 05:20 7.8
2017-Mar-28 05:15 337 7 gusting 12 7.8
2017-Mar-28 05:10 315 3 gusting 6 7.8
2017-Mar-28 05:05 7.2
2017-Mar-28 05:00 022 13 gusting 20 7.2
2017-Mar-28 04:55 337 6 gusting 13 6.7
2017-Mar-28 04:50 045 6 gusting 14 6.1
2017-Mar-28 04:45 022 7 gusting 15 6.1
2017-Mar-28 04:40 022 6 gusting 8 5.6
2017-Mar-28 04:35 315 7 gusting 11 5.6
2017-Mar-28 04:30 337 5 gusting 8 5.6
2017-Mar-28 04:25 045 7 gusting 9 5.6
2017-Mar-28 04:20 090 7 gusting 12 5.6
2017-Mar-28 04:15 5.6
2017-Mar-28 04:10 135 6 gusting 13 5.6
2017-Mar-28 04:05 022 5 gusting 10 5.6
2017-Mar-28 04:00 045 7 gusting 10 5.6
2017-Mar-28 03:55 225 2 gusting 5 5.6
2017-Mar-28 03:50 5.6
2017-Mar-28 03:45 5.6
2017-Mar-28 03:40 5.6
2017-Mar-28 03:35 337 2 gusting 6 5.6
2017-Mar-28 03:30 022 7 gusting 11 5.6
2017-Mar-28 03:25 045 4 gusting 7 5.6
2017-Mar-28 03:20 5.6
2017-Mar-28 03:15 292 8 gusting 13 5.6
2017-Mar-28 03:10 022 2 gusting 10 5.6
2017-Mar-28 03:05 157 5 gusting 7 5.6
2017-Mar-28 03:00 337 5 gusting 10 5.6
2017-Mar-28 02:55 5.6
2017-Mar-28 02:50 067 6 gusting 9 5.6
2017-Mar-28 02:45 315 3 gusting 9 5.6
2017-Mar-28 02:40 247 2 gusting 6 5.6
2017-Mar-28 02:35 5.6
2017-Mar-28 02:30 022 6 gusting 8 5.6
2017-Mar-28 02:25 315 2 gusting 5 5.6
2017-Mar-28 02:20 337 4 gusting 8 5.6
2017-Mar-28 02:15 292 3 gusting 5 5.6
2017-Mar-28 02:10 045 1 gusting 5 5.6
2017-Mar-28 02:05 067 6 gusting 9 5.6
2017-Mar-28 02:00 022 3 gusting 5 5.6
2017-Mar-28 01:55 270 1 gusting 3 5.6
2017-Mar-28 01:50 157 1 gusting 3 5.6
2017-Mar-28 01:45 5.6
2017-Mar-28 01:40 337 2 gusting 5 5.6
2017-Mar-28 01:35 067 3 gusting 6 5.6
2017-Mar-28 01:30 045 2 gusting 3 5.6
2017-Mar-28 01:25 090 4 gusting 9 6.1
2017-Mar-28 01:20 315 4 gusting 5 6.1
2017-Mar-28 01:15 5.6
2017-Mar-28 01:10 337 3 gusting 9 5.6
2017-Mar-28 01:05 270 4 gusting 7 5.6
2017-Mar-28 01:00 022 3 gusting 7 5.6
2017-Mar-28 00:55 5.6
2017-Mar-28 00:50 5.6
2017-Mar-28 00:45 292 3 gusting 6 5.6
2017-Mar-28 00:40 112 2 gusting 4 5.6
2017-Mar-28 00:35 5.6
2017-Mar-28 00:30 315 4 gusting 7 5.6
2017-Mar-28 00:25 045 1 gusting 4 5.6
2017-Mar-28 00:20 337 5 gusting 11 5.6
2017-Mar-28 00:15 270 1 gusting 3 5.6
2017-Mar-28 00:10 045 1 gusting 4 6.1
2017-Mar-28 00:05 6.1
2017-Mar-28 00:00 090 3 gusting 8 6.1
2017-Mar-27 23:55 6.1
2017-Mar-27 23:50 6.1
2017-Mar-27 23:45 022 6 gusting 12 6.1
2017-Mar-27 23:40 180 6 gusting 10 6.1
2017-Mar-27 23:35 337 5 gusting 10 6.1
2017-Mar-27 23:30 090 4 gusting 7 6.1
2017-Mar-27 23:25 6.1
2017-Mar-27 23:20 067 7 gusting 11 6.1
2017-Mar-27 23:15 090 2 gusting 6 6.1
2017-Mar-27 23:10 045 5 gusting 12 6.1
2017-Mar-27 23:05 292 6 gusting 9 6.1
2017-Mar-27 23:00 135 3 gusting 6 6.1
2017-Mar-27 22:55 045 3 gusting 5 6.1
2017-Mar-27 22:50 090 1 gusting 2 6.1
2017-Mar-27 22:45 6.1
2017-Mar-27 22:40 225 1 gusting 2 6.1
2017-Mar-27 22:35 180 3 gusting 5 6.1
2017-Mar-27 22:30 045 3 gusting 4 6.1
2017-Mar-27 22:25 112 3 gusting 6 6.1
2017-Mar-27 22:20 270 3 gusting 6 6.1
2017-Mar-27 22:15 090 1 gusting 2 6.7
2017-Mar-27 22:10 045 5 gusting 8 6.7
2017-Mar-27 22:05 225 0 gusting 3 6.1
2017-Mar-27 22:00 225 4 gusting 7 6.1
2017-Mar-27 21:55 135 2 gusting 4 6.1
2017-Mar-27 21:50 135 1 gusting 3 6.1
2017-Mar-27 21:45 157 1 gusting 1 6.1
2017-Mar-27 21:40 090 2 gusting 3 6.1
2017-Mar-27 21:35 135 2 gusting 3 6.1
2017-Mar-27 21:30 090 5 gusting 6 6.1
2017-Mar-27 21:25 157 3 gusting 5 6.1
2017-Mar-27 21:20 135 6.1
2017-Mar-27 21:15 090 3 gusting 4 6.1
2017-Mar-27 21:10 180 3 gusting 4 6.1
2017-Mar-27 21:05 270 3 gusting 4 6.1
2017-Mar-27 21:00 090 6.1
2017-Mar-27 20:55 090 0 gusting 1 6.1
2017-Mar-27 20:50 180 1 gusting 3 6.1
2017-Mar-27 20:45 202 4 gusting 6 6.1
2017-Mar-27 20:40 180 4 gusting 6 6.1
2017-Mar-27 20:35 180 2 gusting 4 6.1
2017-Mar-27 20:30 090 1 gusting 3 6.1
2017-Mar-27 20:25 202 7 gusting 10 6.1
2017-Mar-27 20:20 225 0 gusting 1 6.1
2017-Mar-27 20:15 112 1 gusting 2 6.7
2017-Mar-27 20:10 135 3 gusting 5 6.7
2017-Mar-27 20:05 112 3 gusting 7 6.7
2017-Mar-27 20:00 202 0 gusting 1 6.7
2017-Mar-27 19:55 315 1 gusting 3 6.7
2017-Mar-27 19:50 6.7
2017-Mar-27 19:45 270 1 gusting 3 6.7
2017-Mar-27 19:40 157 3 gusting 5 6.7
2017-Mar-27 19:35 180 3 gusting 5 6.7
2017-Mar-27 19:30 157 3 gusting 5 7.2
2017-Mar-27 19:25 292 5 gusting 8 6.7
2017-Mar-27 19:20 180 0 gusting 1 6.7
2017-Mar-27 19:15 180 2 gusting 4 6.7
2017-Mar-27 19:10 270 3 gusting 6 6.7
2017-Mar-27 19:05 202 2 gusting 6 7.2
2017-Mar-27 19:00 157 6 gusting 8 7.2
2017-Mar-27 18:55 292 2 gusting 4 7.2
2017-Mar-27 18:50 270 5 gusting 6 7.2
2017-Mar-27 18:45 225 5 gusting 8 7.2
2017-Mar-27 18:40 337 4 gusting 9 6.7
2017-Mar-27 18:35 270 3 gusting 7 6.7
2017-Mar-27 18:30 225 5 gusting 7 6.7
2017-Mar-27 18:25 270 3 gusting 7 6.7
2017-Mar-27 18:20 090 1 gusting 3 6.7
2017-Mar-27 18:15 292 3 gusting 6 6.7
2017-Mar-27 18:10 180 4 gusting 6 6.7
2017-Mar-27 18:05 315 2 gusting 5 6.7
2017-Mar-27 18:00 202 3 gusting 10 6.7
2017-Mar-27 17:55 090 5 gusting 10 6.7
2017-Mar-27 17:50 067 5 gusting 7 6.7
2017-Mar-27 17:45 045 3 gusting 4 6.7
2017-Mar-27 17:40 045 6 gusting 12 6.7
2017-Mar-27 17:35 067 8 gusting 14 6.7
2017-Mar-27 17:30 045 3 gusting 8 7.2
2017-Mar-27 17:25 7.2
2017-Mar-27 17:20 045 7 gusting 17 6.7
2017-Mar-27 17:15 7.2
2017-Mar-27 17:10 7.2
2017-Mar-27 17:05 090 2 gusting 4 7.2
2017-Mar-27 17:00 225 2 gusting 5 7.2
2017-Mar-27 16:55 045 6 gusting 9 7.2
2017-Mar-27 16:50 067 5 gusting 10 7.2
2017-Mar-27 16:45 7.8
2017-Mar-27 16:40 7.8
2017-Mar-27 16:35 225 1 gusting 3 7.8
2017-Mar-27 16:30 090 6 gusting 12 7.8
2017-Mar-27 16:25 090 4 gusting 7 8.3
2017-Mar-27 16:20 067 2 gusting 6 8.3
2017-Mar-27 16:15 022 6 gusting 13 8.9
2017-Mar-27 16:10 315 4 gusting 7 9.4
2017-Mar-27 16:05 112 6 gusting 8 9.4
2017-Mar-27 16:00 067 2 gusting 6 10.0
2017-Mar-27 15:55 067 4 gusting 7 10.0
2017-Mar-27 15:50 090 5 gusting 8 10.0
2017-Mar-27 15:45 090 6 gusting 12 10.6
2017-Mar-27 15:40 270 4 gusting 6 10.6
2017-Mar-27 15:35 067 2 gusting 5 10.6
2017-Mar-27 15:30 045 0 gusting 2 10.6
2017-Mar-27 15:25 157 4 gusting 6 10.6
2017-Mar-27 15:20 090 6 gusting 9 11.1
2017-Mar-27 15:15 045 5 gusting 8 11.1
2017-Mar-27 15:10 112 5 gusting 9 11.7
2017-Mar-27 15:05 337 4 gusting 5 12.2
2017-Mar-27 15:00 022 5 gusting 8 12.8
2017-Mar-27 14:50 270 8 gusting 13 12.8
2017-Mar-27 14:45 337 2 gusting 6 12.2
2017-Mar-27 14:40 112 1 gusting 3 12.2
2017-Mar-27 14:35 022 7 gusting 11 12.2
2017-Mar-27 14:30 12.2
2017-Mar-27 14:25 045 7 gusting 14 12.2
2017-Mar-27 14:20 090 7 gusting 13 12.8
2017-Mar-27 14:15 315 6 gusting 12 12.2
2017-Mar-27 14:10 12.8
2017-Mar-27 14:05 022 3 gusting 11 12.2
2017-Mar-27 14:00 337 8 gusting 15 12.8
2017-Mar-27 13:55 022 6 gusting 11 12.8
2017-Mar-27 13:50 13.3
2017-Mar-27 13:45 022 4 gusting 9 13.3
2017-Mar-27 13:40 225 2 gusting 3 13.3
2017-Mar-27 13:35 022 4 gusting 8 12.8
2017-Mar-27 13:30 045 5 gusting 7 12.8
2017-Mar-27 13:25 12.8
2017-Mar-27 13:20 292 5 gusting 9 12.8
2017-Mar-27 13:15 045 8 gusting 14 12.8
2017-Mar-27 13:10 045 9 gusting 16 12.8
2017-Mar-27 13:05 337 8 gusting 14 12.8
2017-Mar-27 13:00 022 6 gusting 9 13.3
2017-Mar-27 12:55 157 5 gusting 8 13.3
2017-Mar-27 12:50 045 4 gusting 13 13.3
2017-Mar-27 12:45 13.3
2017-Mar-27 12:40 13.3
2017-Mar-27 12:35 090 5 gusting 7 13.3
2017-Mar-27 12:30 022 6 gusting 11 13.9
2017-Mar-27 12:25 067 6 gusting 11 13.9
2017-Mar-27 12:20 022 6 gusting 10 13.3
2017-Mar-27 12:15 022 5 gusting 7 13.3
2017-Mar-27 12:10 337 7 gusting 11 13.3
2017-Mar-27 12:05 112 6 gusting 13 11.7
2017-Mar-27 12:00 12.2
2017-Mar-27 11:55 045 10 gusting 12 12.8
2017-Mar-27 11:50 022 9 gusting 13 12.8
2017-Mar-27 11:45 022 9 gusting 15 12.8
2017-Mar-27 11:40 12.8
2017-Mar-27 11:35 13.3
2017-Mar-27 11:30 022 6 gusting 19 13.3
2017-Mar-27 11:25 045 11 gusting 16 13.9
2017-Mar-27 11:20 045 10 gusting 14 13.9
2017-Mar-27 11:15 13.9
2017-Mar-27 11:10 112 6 gusting 8 13.3
2017-Mar-27 11:05 315 11 gusting 18 13.3
2017-Mar-27 11:00 13.9
2017-Mar-27 10:55 270 6 gusting 12 13.3
2017-Mar-27 10:50 022 9 gusting 13 13.3
2017-Mar-27 10:45 022 8 gusting 16 13.9
2017-Mar-27 10:40 022 13 gusting 17 13.9
2017-Mar-27 10:35 13.9
2017-Mar-27 10:30 13.9
2017-Mar-27 10:25 045 11 gusting 19 13.3
2017-Mar-27 10:20 13.3
2017-Mar-27 10:15 045 7 gusting 10 13.3
2017-Mar-27 10:10 045 9 gusting 13 13.3
2017-Mar-27 10:05 13.3
2017-Mar-27 10:00 13.3
2017-Mar-27 09:55 112 6 gusting 13 13.3
2017-Mar-27 09:50 13.3
2017-Mar-27 09:45 090 12 gusting 19 13.3
2017-Mar-27 09:40 090 6 gusting 10 13.3
2017-Mar-27 09:35 13.3
2017-Mar-27 09:30 337 7 gusting 13 13.3
2017-Mar-27 09:25 337 8 gusting 11 12.8
2017-Mar-27 09:20 022 9 gusting 15 12.8
2017-Mar-27 09:15 045 13 gusting 20 12.8
2017-Mar-27 09:10 067 9 gusting 17 12.8
2017-Mar-27 09:05 090 9 gusting 15 12.8
2017-Mar-27 09:00 12.8
2017-Mar-27 08:55 12.8
2017-Mar-27 08:50 067 12 gusting 19 12.8
2017-Mar-27 08:45 13.3
2017-Mar-27 08:40 045 8 gusting 17 13.3
2017-Mar-27 08:35 045 7 gusting 12 13.3
2017-Mar-27 08:30 045 6 gusting 13 12.8
2017-Mar-27 08:25 090 10 gusting 14 12.8
2017-Mar-27 08:20 045 10 gusting 18 12.2
2017-Mar-27 08:15 045 9 gusting 19 12.2
2017-Mar-27 08:10 022 13 gusting 20 12.2
2017-Mar-27 08:05 022 9 gusting 15 11.7
2017-Mar-27 08:00 12.2
2017-Mar-27 07:55 112 13 gusting 23 11.7
2017-Mar-27 07:50 022 16 gusting 26 11.7
2017-Mar-27 07:45 090 13 gusting 18 11.7
2017-Mar-27 07:40 11.7
2017-Mar-27 07:35 112 11 gusting 18 11.7
2017-Mar-27 07:30 045 11 gusting 17 11.7
2017-Mar-27 07:25 045 13 gusting 25 11.7
2017-Mar-27 07:20 11.7
2017-Mar-27 07:15 045 14 gusting 26 11.1
2017-Mar-27 07:10 090 13 gusting 19 11.1
2017-Mar-27 07:05 337 11 gusting 20 11.1
2017-Mar-27 07:00 11.1
2017-Mar-27 06:55 292 9 gusting 17 11.1
2017-Mar-27 06:50 045 13 gusting 22 11.1
2017-Mar-27 06:45 112 9 gusting 14 11.1
2017-Mar-27 06:40 067 9 gusting 15 11.1
2017-Mar-27 06:35 022 9 gusting 18 11.1
2017-Mar-27 06:30 022 10 gusting 19 11.1
2017-Mar-27 06:25 090 6 gusting 14 11.1
2017-Mar-27 06:20 045 13 gusting 19 10.6
2017-Mar-27 06:15 045 12 gusting 18 10.6
2017-Mar-27 06:10 045 10 gusting 15 10.6
2017-Mar-27 06:05 045 13 gusting 25 10.6
2017-Mar-27 06:00 045 12 gusting 22 10.6
2017-Mar-27 05:55 157 10 gusting 19 10.6
2017-Mar-27 05:50 045 9 gusting 16 10.6
2017-Mar-27 05:45 337 11 gusting 20 10.0
2017-Mar-27 05:40 045 8 gusting 15 10.0
2017-Mar-27 05:35 045 13 gusting 22 9.4
2017-Mar-27 05:30 067 10 gusting 17 9.4
2017-Mar-27 05:25 270 9 gusting 19 9.4
2017-Mar-27 05:20 045 8 gusting 18 8.9
2017-Mar-27 05:15 045 10 gusting 16 8.3
2017-Mar-27 05:10 045 9 gusting 14 8.3
2017-Mar-27 05:05 022 9 gusting 19 8.3
2017-Mar-27 05:00 090 8 gusting 15 8.3